Amor, Minnesota
Current Conditions -  °F | °C
As of 5:34 PM on Saturday 20 Dec 2014 (Local Time) from KFFM Reporting Station
Haze Haze  
Wind Chill: 19°   Ceiling: 800
Heat Index: 30°   Visibility: 5mi
Dew Point: 28°   Wind: 16mph
Humidity: 93%   Direction: 160°SSE
Pressure: 30"   Gusts: NA
Location:  46.3166°N, 95.7183°W
Report Text: KFFM 202334Z AUTO 16014KT 5SM BR OVC008 M01/M02 A3000 RMK AO2
Loading
Personal Weather Stations






























Interactive Weather Map New forecast layout! Learn more

10-Day Weather Forecast

Advertisements
Track Severe Weather on mobile